sensor_id;sensor_type;location;lat;lon;timestamp;temperature;humidity
22112;DHT22;11222;50.872;4.312;2023-11-21T00:00:12;10.90;99.90
22112;DHT22;11222;50.872;4.312;2023-11-21T00:02:38;10.90;99.90
22112;DHT22;11222;50.872;4.312;2023-11-21T00:05:09;10.70;99.90
22112;DHT22;11222;50.872;4.312;2023-11-21T00:07:35;10.70;99.90
22112;DHT22;11222;50.872;4.312;2023-11-21T00:10:01;10.60;99.90
22112;DHT22;11222;50.872;4.312;2023-11-21T00:12:28;10.60;99.90
22112;DHT22;11222;50.872;4.312;2023-11-21T00:14:54;10.50;99.90
22112;DHT22;11222;50.872;4.312;2023-11-21T00:17:20;10.50;99.90
22112;DHT22;11222;50.872;4.312;2023-11-21T00:19:45;10.40;99.90
22112;DHT22;11222;50.872;4.312;2023-11-21T00:22:11;10.20;99.90
22112;DHT22;11222;50.872;4.312;2023-11-21T00:24:36;10.20;99.90
22112;DHT22;11222;50.872;4.312;2023-11-21T00:27:02;10.20;99.90
22112;DHT22;11222;50.872;4.312;2023-11-21T00:29:28;10.10;99.90
22112;DHT22;11222;50.872;4.312;2023-11-21T00:31:54;10.10;99.90
22112;DHT22;11222;50.872;4.312;2023-11-21T00:34:19;10.00;99.90
22112;DHT22;11222;50.872;4.312;2023-11-21T00:36:45;9.90;99.90
22112;DHT22;11222;50.872;4.312;2023-11-21T00:39:10;9.80;99.90
22112;DHT22;11222;50.872;4.312;2023-11-21T00:41:37;9.80;99.90
22112;DHT22;11222;50.872;4.312;2023-11-21T00:44:02;9.70;99.90
22112;DHT22;11222;50.872;4.312;2023-11-21T00:46:28;9.70;99.90
22112;DHT22;11222;50.872;4.312;2023-11-21T00:48:54;9.70;99.90
22112;DHT22;11222;50.872;4.312;2023-11-21T00:51:20;9.70;99.90
22112;DHT22;11222;50.872;4.312;2023-11-21T00:53:46;9.70;99.90
22112;DHT22;11222;50.872;4.312;2023-11-21T00:56:12;9.70;99.90
22112;DHT22;11222;50.872;4.312;2023-11-21T00:58:38;9.70;99.90
22112;DHT22;11222;50.872;4.312;2023-11-21T01:01:04;9.80;99.90
22112;DHT22;11222;50.872;4.312;2023-11-21T01:03:29;9.80;99.90
22112;DHT22;11222;50.872;4.312;2023-11-21T01:05:55;9.90;99.90
22112;DHT22;11222;50.872;4.312;2023-11-21T01:08:21;9.90;99.90
22112;DHT22;11222;50.872;4.312;2023-11-21T01:10:47;9.90;99.90
22112;DHT22;11222;50.872;4.312;2023-11-21T01:13:12;9.90;99.90
22112;DHT22;11222;50.872;4.312;2023-11-21T01:15:40;10.00;99.90
22112;DHT22;11222;50.872;4.312;2023-11-21T01:18:07;10.10;99.90
22112;DHT22;11222;50.872;4.312;2023-11-21T01:20:34;10.20;99.90
22112;DHT22;11222;50.872;4.312;2023-11-21T01:22:59;10.10;99.90
22112;DHT22;11222;50.872;4.312;2023-11-21T01:25:25;10.10;99.90
22112;DHT22;11222;50.872;4.312;2023-11-21T01:27:51;10.10;99.90
22112;DHT22;11222;50.872;4.312;2023-11-21T01:30:17;10.10;99.90
22112;DHT22;11222;50.872;4.312;2023-11-21T01:32:42;10.10;99.90
22112;DHT22;11222;50.872;4.312;2023-11-21T01:35:09;10.20;99.90
22112;DHT22;11222;50.872;4.312;2023-11-21T01:37:35;10.20;99.90
22112;DHT22;11222;50.872;4.312;2023-11-21T01:40:01;10.20;99.90
22112;DHT22;11222;50.872;4.312;2023-11-21T01:42:27;10.30;99.90
22112;DHT22;11222;50.872;4.312;2023-11-21T01:44:54;10.40;99.90
22112;DHT22;11222;50.872;4.312;2023-11-21T01:47:20;10.50;99.90
22112;DHT22;11222;50.872;4.312;2023-11-21T01:49:46;10.50;99.90
22112;DHT22;11222;50.872;4.312;2023-11-21T01:52:12;10.50;99.90
22112;DHT22;11222;50.872;4.312;2023-11-21T01:54:38;10.50;99.90
22112;DHT22;11222;50.872;4.312;2023-11-21T01:57:04;10.50;99.90
22112;DHT22;11222;50.872;4.312;2023-11-21T01:59:35;10.50;99.90
22112;DHT22;11222;50.872;4.312;2023-11-21T02:02:05;10.50;99.90
22112;DHT22;11222;50.872;4.312;2023-11-21T02:04:32;10.60;99.90
22112;DHT22;11222;50.872;4.312;2023-11-21T02:06:58;10.70;99.90
22112;DHT22;11222;50.872;4.312;2023-11-21T02:09:24;10.80;99.90
22112;DHT22;11222;50.872;4.312;2023-11-21T02:11:51;10.80;99.90
22112;DHT22;11222;50.872;4.312;2023-11-21T02:14:16;10.70;99.90
22112;DHT22;11222;50.872;4.312;2023-11-21T02:16:45;10.50;99.90
22112;DHT22;11222;50.872;4.312;2023-11-21T02:19:13;10.30;99.90
22112;DHT22;11222;50.872;4.312;2023-11-21T02:21:44;10.20;99.90
22112;DHT22;11222;50.872;4.312;2023-11-21T02:24:10;10.20;99.90
22112;DHT22;11222;50.872;4.312;2023-11-21T02:26:36;10.10;99.90
22112;DHT22;11222;50.872;4.312;2023-11-21T02:29:01;10.10;99.90
22112;DHT22;11222;50.872;4.312;2023-11-21T02:31:29;10.10;99.90
22112;DHT22;11222;50.872;4.312;2023-11-21T02:33:55;10.10;99.90
22112;DHT22;11222;50.872;4.312;2023-11-21T02:36:20;10.10;99.90
22112;DHT22;11222;50.872;4.312;2023-11-21T02:38:47;10.20;99.90
22112;DHT22;11222;50.872;4.312;2023-11-21T02:41:12;10.20;99.90
22112;DHT22;11222;50.872;4.312;2023-11-21T02:43:38;10.30;99.90
22112;DHT22;11222;50.872;4.312;2023-11-21T02:46:04;10.40;99.90
22112;DHT22;11222;50.872;4.312;2023-11-21T02:48:29;10.40;99.90
22112;DHT22;11222;50.872;4.312;2023-11-21T02:50:56;10.40;99.90
22112;DHT22;11222;50.872;4.312;2023-11-21T02:53:21;10.50;99.90
22112;DHT22;11222;50.872;4.312;2023-11-21T02:55:47;10.70;99.90
22112;DHT22;11222;50.872;4.312;2023-11-21T02:58:12;10.70;99.90
22112;DHT22;11222;50.872;4.312;2023-11-21T03:00:38;10.80;99.90
22112;DHT22;11222;50.872;4.312;2023-11-21T03:03:05;10.70;99.90
22112;DHT22;11222;50.872;4.312;2023-11-21T03:05:31;10.70;99.90
22112;DHT22;11222;50.872;4.312;2023-11-21T03:07:56;10.70;99.90
22112;DHT22;11222;50.872;4.312;2023-11-21T03:10:22;10.60;99.90
22112;DHT22;11222;50.872;4.312;2023-11-21T03:12:48;10.50;99.90
22112;DHT22;11222;50.872;4.312;2023-11-21T03:15:14;10.40;99.90
22112;DHT22;11222;50.872;4.312;2023-11-21T03:17:40;10.40;99.90
22112;DHT22;11222;50.872;4.312;2023-11-21T03:20:05;10.40;99.90
22112;DHT22;11222;50.872;4.312;2023-11-21T03:22:31;10.40;99.90
22112;DHT22;11222;50.872;4.312;2023-11-21T03:24:57;10.40;99.90
22112;DHT22;11222;50.872;4.312;2023-11-21T03:27:23;10.40;99.90
22112;DHT22;11222;50.872;4.312;2023-11-21T03:29:49;10.50;99.90
22112;DHT22;11222;50.872;4.312;2023-11-21T03:32:15;10.60;99.90
22112;DHT22;11222;50.872;4.312;2023-11-21T03:34:53;10.70;99.90
22112;DHT22;11222;50.872;4.312;2023-11-21T03:37:20;10.80;99.90
22112;DHT22;11222;50.872;4.312;2023-11-21T03:39:46;10.70;99.90
22112;DHT22;11222;50.872;4.312;2023-11-21T03:42:11;10.80;99.90
22112;DHT22;11222;50.872;4.312;2023-11-21T03:44:37;10.80;99.90
22112;DHT22;11222;50.872;4.312;2023-11-21T03:47:03;10.80;99.90
22112;DHT22;11222;50.872;4.312;2023-11-21T03:49:28;10.90;99.90
22112;DHT22;11222;50.872;4.312;2023-11-21T03:51:55;11.10;99.90
22112;DHT22;11222;50.872;4.312;2023-11-21T03:54:21;11.10;99.90
22112;DHT22;11222;50.872;4.312;2023-11-21T03:56:46;11.20;99.90
22112;DHT22;11222;50.872;4.312;2023-11-21T03:59:12;11.20;99.90
22112;DHT22;11222;50.872;4.312;2023-11-21T04:01:37;11.20;99.90
22112;DHT22;11222;50.872;4.312;2023-11-21T04:04:03;11.30;99.90
22112;DHT22;11222;50.872;4.312;2023-11-21T04:06:29;11.20;99.90
22112;DHT22;11222;50.872;4.312;2023-11-21T04:08:55;11.30;99.90
22112;DHT22;11222;50.872;4.312;2023-11-21T04:11:20;11.30;99.90
22112;DHT22;11222;50.872;4.312;2023-11-21T04:13:46;11.30;99.90
22112;DHT22;11222;50.872;4.312;2023-11-21T04:16:12;11.30;99.90
22112;DHT22;11222;50.872;4.312;2023-11-21T04:18:37;11.30;99.90
22112;DHT22;11222;50.872;4.312;2023-11-21T04:21:06;11.20;99.90
22112;DHT22;11222;50.872;4.312;2023-11-21T04:23:33;11.20;99.90
22112;DHT22;11222;50.872;4.312;2023-11-21T04:25:59;11.20;99.90
22112;DHT22;11222;50.872;4.312;2023-11-21T04:28:24;11.10;99.90
22112;DHT22;11222;50.872;4.312;2023-11-21T04:30:50;11.00;99.90
22112;DHT22;11222;50.872;4.312;2023-11-21T04:33:16;10.90;99.90
22112;DHT22;11222;50.872;4.312;2023-11-21T04:35:41;10.80;99.90
22112;DHT22;11222;50.872;4.312;2023-11-21T04:38:07;10.70;99.90
22112;DHT22;11222;50.872;4.312;2023-11-21T04:40:32;10.60;99.90
22112;DHT22;11222;50.872;4.312;2023-11-21T04:42:58;10.60;99.90
22112;DHT22;11222;50.872;4.312;2023-11-21T04:45:23;10.70;99.90
22112;DHT22;11222;50.872;4.312;2023-11-21T04:47:49;10.70;99.90
22112;DHT22;11222;50.872;4.312;2023-11-21T04:50:15;10.70;99.90
22112;DHT22;11222;50.872;4.312;2023-11-21T04:52:40;10.80;99.90
22112;DHT22;11222;50.872;4.312;2023-11-21T04:55:06;10.90;99.90
22112;DHT22;11222;50.872;4.312;2023-11-21T04:57:35;10.90;99.90
22112;DHT22;11222;50.872;4.312;2023-11-21T05:00:01;10.80;99.90
22112;DHT22;11222;50.872;4.312;2023-11-21T05:02:26;10.70;99.90
22112;DHT22;11222;50.872;4.312;2023-11-21T05:04:52;10.70;99.90
22112;DHT22;11222;50.872;4.312;2023-11-21T05:07:18;10.60;99.90
22112;DHT22;11222;50.872;4.312;2023-11-21T05:09:44;10.70;99.90
22112;DHT22;11222;50.872;4.312;2023-11-21T05:12:11;10.70;99.90
22112;DHT22;11222;50.872;4.312;2023-11-21T05:14:37;10.60;99.90
22112;DHT22;11222;50.872;4.312;2023-11-21T05:17:03;10.60;99.90
22112;DHT22;11222;50.872;4.312;2023-11-21T05:19:29;10.60;99.90
22112;DHT22;11222;50.872;4.312;2023-11-21T05:21:55;10.60;99.90
22112;DHT22;11222;50.872;4.312;2023-11-21T05:24:20;10.70;99.90
22112;DHT22;11222;50.872;4.312;2023-11-21T05:26:46;10.70;99.90
22112;DHT22;11222;50.872;4.312;2023-11-21T05:29:11;10.70;99.90
22112;DHT22;11222;50.872;4.312;2023-11-21T05:31:37;10.70;99.90
22112;DHT22;11222;50.872;4.312;2023-11-21T05:34:03;10.70;99.90
22112;DHT22;11222;50.872;4.312;2023-11-21T05:36:30;10.70;99.90
22112;DHT22;11222;50.872;4.312;2023-11-21T05:38:56;10.70;99.90
22112;DHT22;11222;50.872;4.312;2023-11-21T05:41:21;10.80;99.90
22112;DHT22;11222;50.872;4.312;2023-11-21T05:43:47;10.70;99.90
22112;DHT22;11222;50.872;4.312;2023-11-21T05:46:12;10.70;99.90
22112;DHT22;11222;50.872;4.312;2023-11-21T05:48:38;10.80;99.90
22112;DHT22;11222;50.872;4.312;2023-11-21T05:51:04;10.80;99.90
22112;DHT22;11222;50.872;4.312;2023-11-21T05:53:30;10.70;99.90
22112;DHT22;11222;50.872;4.312;2023-11-21T05:55:55;10.70;99.90
22112;DHT22;11222;50.872;4.312;2023-11-21T05:58:21;10.60;99.90
22112;DHT22;11222;50.872;4.312;2023-11-21T06:00:47;10.70;99.90
22112;DHT22;11222;50.872;4.312;2023-11-21T06:03:12;10.70;99.90
22112;DHT22;11222;50.872;4.312;2023-11-21T06:05:38;10.80;99.90
22112;DHT22;11222;50.872;4.312;2023-11-21T06:08:03;10.80;99.90
22112;DHT22;11222;50.872;4.312;2023-11-21T06:10:29;10.90;99.90
22112;DHT22;11222;50.872;4.312;2023-11-21T06:12:54;10.90;99.90
22112;DHT22;11222;50.872;4.312;2023-11-21T06:15:20;10.90;99.90
22112;DHT22;11222;50.872;4.312;2023-11-21T06:17:47;10.90;99.90
22112;DHT22;11222;50.872;4.312;2023-11-21T06:20:17;10.80;99.90
22112;DHT22;11222;50.872;4.312;2023-11-21T06:22:44;10.70;99.90
22112;DHT22;11222;50.872;4.312;2023-11-21T06:25:10;10.70;99.90
22112;DHT22;11222;50.872;4.312;2023-11-21T06:27:45;10.60;99.90
22112;DHT22;11222;50.872;4.312;2023-11-21T06:30:11;10.60;99.90
22112;DHT22;11222;50.872;4.312;2023-11-21T06:32:37;10.70;99.90
22112;DHT22;11222;50.872;4.312;2023-11-21T06:35:04;10.80;99.90
22112;DHT22;11222;50.872;4.312;2023-11-21T06:37:30;10.90;99.90
22112;DHT22;11222;50.872;4.312;2023-11-21T06:39:56;10.90;99.90
22112;DHT22;11222;50.872;4.312;2023-11-21T06:42:22;11.00;99.90
22112;DHT22;11222;50.872;4.312;2023-11-21T06:44:48;10.90;99.90
22112;DHT22;11222;50.872;4.312;2023-11-21T06:47:14;10.80;99.90
22112;DHT22;11222;50.872;4.312;2023-11-21T06:49:39;10.70;99.90
22112;DHT22;11222;50.872;4.312;2023-11-21T06:52:05;10.70;99.90
22112;DHT22;11222;50.872;4.312;2023-11-21T06:54:31;10.60;99.90
22112;DHT22;11222;50.872;4.312;2023-11-21T06:56:57;10.60;99.90
22112;DHT22;11222;50.872;4.312;2023-11-21T06:59:23;10.60;99.90
22112;DHT22;11222;50.872;4.312;2023-11-21T07:01:49;10.60;99.90
22112;DHT22;11222;50.872;4.312;2023-11-21T07:04:14;10.60;99.90
22112;DHT22;11222;50.872;4.312;2023-11-21T07:06:40;10.60;99.90
22112;DHT22;11222;50.872;4.312;2023-11-21T07:09:06;10.70;99.90
22112;DHT22;11222;50.872;4.312;2023-11-21T07:11:34;10.70;99.90
22112;DHT22;11222;50.872;4.312;2023-11-21T07:13:59;10.70;99.90
22112;DHT22;11222;50.872;4.312;2023-11-21T07:16:27;10.80;99.90
22112;DHT22;11222;50.872;4.312;2023-11-21T07:18:55;10.80;99.90
22112;DHT22;11222;50.872;4.312;2023-11-21T07:21:21;10.80;99.90
22112;DHT22;11222;50.872;4.312;2023-11-21T07:23:46;10.80;99.90
22112;DHT22;11222;50.872;4.312;2023-11-21T07:26:12;10.80;99.90
22112;DHT22;11222;50.872;4.312;2023-11-21T07:28:38;10.80;99.90
22112;DHT22;11222;50.872;4.312;2023-11-21T07:31:03;10.70;99.90
22112;DHT22;11222;50.872;4.312;2023-11-21T07:33:29;10.80;99.90
22112;DHT22;11222;50.872;4.312;2023-11-21T07:35:54;10.80;99.90
22112;DHT22;11222;50.872;4.312;2023-11-21T07:38:20;10.80;99.90
22112;DHT22;11222;50.872;4.312;2023-11-21T07:40:45;10.90;99.90
22112;DHT22;11222;50.872;4.312;2023-11-21T07:43:11;10.90;99.90
22112;DHT22;11222;50.872;4.312;2023-11-21T07:45:37;11.00;99.90
22112;DHT22;11222;50.872;4.312;2023-11-21T07:48:02;11.00;99.90
22112;DHT22;11222;50.872;4.312;2023-11-21T07:50:30;11.00;99.90
22112;DHT22;11222;50.872;4.312;2023-11-21T07:52:56;11.10;99.90
22112;DHT22;11222;50.872;4.312;2023-11-21T07:55:23;11.10;99.90
22112;DHT22;11222;50.872;4.312;2023-11-21T07:57:50;11.10;99.90
22112;DHT22;11222;50.872;4.312;2023-11-21T08:00:15;11.00;99.90
22112;DHT22;11222;50.872;4.312;2023-11-21T08:02:41;11.10;99.90
22112;DHT22;11222;50.872;4.312;2023-11-21T08:05:11;11.20;99.90
22112;DHT22;11222;50.872;4.312;2023-11-21T08:07:37;11.20;99.90
22112;DHT22;11222;50.872;4.312;2023-11-21T08:10:03;11.20;99.90
22112;DHT22;11222;50.872;4.312;2023-11-21T08:12:30;11.20;99.90
22112;DHT22;11222;50.872;4.312;2023-11-21T08:14:55;11.10;99.90
22112;DHT22;11222;50.872;4.312;2023-11-21T08:17:21;11.20;99.90
22112;DHT22;11222;50.872;4.312;2023-11-21T08:19:47;11.20;99.90
22112;DHT22;11222;50.872;4.312;2023-11-21T08:22:17;11.30;99.90
22112;DHT22;11222;50.872;4.312;2023-11-21T08:24:43;11.30;99.90
22112;DHT22;11222;50.872;4.312;2023-11-21T08:27:09;11.30;99.90
22112;DHT22;11222;50.872;4.312;2023-11-21T08:29:34;11.30;99.90
22112;DHT22;11222;50.872;4.312;2023-11-21T08:32:01;11.40;99.90
22112;DHT22;11222;50.872;4.312;2023-11-21T08:34:27;11.40;99.90
22112;DHT22;11222;50.872;4.312;2023-11-21T08:36:54;11.40;99.90
22112;DHT22;11222;50.872;4.312;2023-11-21T08:39:19;11.40;99.90
22112;DHT22;11222;50.872;4.312;2023-11-21T08:41:45;11.30;99.90
22112;DHT22;11222;50.872;4.312;2023-11-21T08:44:11;11.40;99.90
22112;DHT22;11222;50.872;4.312;2023-11-21T08:46:36;11.40;99.90
22112;DHT22;11222;50.872;4.312;2023-11-21T08:49:03;11.40;99.90
22112;DHT22;11222;50.872;4.312;2023-11-21T08:51:29;11.50;99.90
22112;DHT22;11222;50.872;4.312;2023-11-21T08:53:54;11.50;99.90
22112;DHT22;11222;50.872;4.312;2023-11-21T08:56:24;11.50;99.90
22112;DHT22;11222;50.872;4.312;2023-11-21T08:58:50;11.50;99.90
22112;DHT22;11222;50.872;4.312;2023-11-21T09:01:15;11.50;99.90
22112;DHT22;11222;50.872;4.312;2023-11-21T09:03:42;11.50;99.90
22112;DHT22;11222;50.872;4.312;2023-11-21T09:06:09;11.50;99.90
22112;DHT22;11222;50.872;4.312;2023-11-21T09:08:35;11.50;99.90
22112;DHT22;11222;50.872;4.312;2023-11-21T09:11:00;11.60;99.90
22112;DHT22;11222;50.872;4.312;2023-11-21T09:13:26;11.60;99.90
22112;DHT22;11222;50.872;4.312;2023-11-21T09:15:51;11.70;99.90
22112;DHT22;11222;50.872;4.312;2023-11-21T09:18:17;11.80;99.90
22112;DHT22;11222;50.872;4.312;2023-11-21T09:20:43;11.70;99.90
22112;DHT22;11222;50.872;4.312;2023-11-21T09:23:09;11.70;99.90
22112;DHT22;11222;50.872;4.312;2023-11-21T09:25:35;11.60;99.90
22112;DHT22;11222;50.872;4.312;2023-11-21T09:28:03;11.70;99.90
22112;DHT22;11222;50.872;4.312;2023-11-21T09:30:33;11.70;99.90
22112;DHT22;11222;50.872;4.312;2023-11-21T09:32:59;11.80;99.90
22112;DHT22;11222;50.872;4.312;2023-11-21T09:35:24;11.80;99.90
22112;DHT22;11222;50.872;4.312;2023-11-21T09:37:50;11.80;99.90
22112;DHT22;11222;50.872;4.312;2023-11-21T09:40:18;11.90;99.90
22112;DHT22;11222;50.872;4.312;2023-11-21T09:42:56;12.00;99.90
22112;DHT22;11222;50.872;4.312;2023-11-21T09:45:26;12.10;99.90
22112;DHT22;11222;50.872;4.312;2023-11-21T09:47:53;12.20;99.90
22112;DHT22;11222;50.872;4.312;2023-11-21T09:50:21;12.30;99.90
22112;DHT22;11222;50.872;4.312;2023-11-21T09:55:18;12.20;99.90
22112;DHT22;11222;50.872;4.312;2023-11-21T09:57:47;12.00;99.90
22112;DHT22;11222;50.872;4.312;2023-11-21T10:00:14;11.80;99.90
22112;DHT22;11222;50.872;4.312;2023-11-21T10:02:42;11.50;99.90
22112;DHT22;11222;50.872;4.312;2023-11-21T10:05:08;11.40;99.90
22112;DHT22;11222;50.872;4.312;2023-11-21T10:07:37;11.20;99.90
22112;DHT22;11222;50.872;4.312;2023-11-21T10:10:05;11.20;99.90
22112;DHT22;11222;50.872;4.312;2023-11-21T10:12:30;11.30;99.90
22112;DHT22;11222;50.872;4.312;2023-11-21T10:14:57;11.30;99.90
22112;DHT22;11222;50.872;4.312;2023-11-21T10:17:25;11.30;99.90
22112;DHT22;11222;50.872;4.312;2023-11-21T10:19:55;11.30;99.90
22112;DHT22;11222;50.872;4.312;2023-11-21T10:22:21;11.40;99.90
22112;DHT22;11222;50.872;4.312;2023-11-21T10:24:47;11.50;99.90
22112;DHT22;11222;50.872;4.312;2023-11-21T10:27:12;11.50;99.90
22112;DHT22;11222;50.872;4.312;2023-11-21T10:29:41;11.70;99.90
22112;DHT22;11222;50.872;4.312;2023-11-21T10:32:07;11.90;99.90
22112;DHT22;11222;50.872;4.312;2023-11-21T10:34:32;11.80;99.90
22112;DHT22;11222;50.872;4.312;2023-11-21T10:36:58;12.00;99.90
22112;DHT22;11222;50.872;4.312;2023-11-21T10:39:24;12.00;99.90
22112;DHT22;11222;50.872;4.312;2023-11-21T10:41:56;12.10;99.90
22112;DHT22;11222;50.872;4.312;2023-11-21T10:44:21;12.30;99.90
22112;DHT22;11222;50.872;4.312;2023-11-21T10:46:52;12.30;99.90
22112;DHT22;11222;50.872;4.312;2023-11-21T10:49:21;12.40;99.90
22112;DHT22;11222;50.872;4.312;2023-11-21T10:51:50;12.50;99.90
22112;DHT22;11222;50.872;4.312;2023-11-21T10:54:18;12.60;99.90
22112;DHT22;11222;50.872;4.312;2023-11-21T10:56:44;12.70;99.90
22112;DHT22;11222;50.872;4.312;2023-11-21T10:59:10;12.80;99.90
22112;DHT22;11222;50.872;4.312;2023-11-21T11:01:44;12.90;99.90
22112;DHT22;11222;50.872;4.312;2023-11-21T11:04:10;13.10;99.90
22112;DHT22;11222;50.872;4.312;2023-11-21T11:06:42;13.30;99.90
22112;DHT22;11222;50.872;4.312;2023-11-21T11:09:08;13.40;99.90
22112;DHT22;11222;50.872;4.312;2023-11-21T11:11:34;13.40;99.90
22112;DHT22;11222;50.872;4.312;2023-11-21T11:14:04;13.10;99.90
22112;DHT22;11222;50.872;4.312;2023-11-21T11:16:30;12.90;99.90
22112;DHT22;11222;50.872;4.312;2023-11-21T11:18:55;12.60;99.90
22112;DHT22;11222;50.872;4.312;2023-11-21T11:21:27;12.50;99.90
22112;DHT22;11222;50.872;4.312;2023-11-21T11:24:04;12.50;99.90
22112;DHT22;11222;50.872;4.312;2023-11-21T11:26:47;12.40;99.90
22112;DHT22;11222;50.872;4.312;2023-11-21T11:29:19;12.40;99.90
22112;DHT22;11222;50.872;4.312;2023-11-21T11:31:55;12.60;99.90
22112;DHT22;11222;50.872;4.312;2023-11-21T11:34:30;12.60;99.90
22112;DHT22;11222;50.872;4.312;2023-11-21T11:37:00;12.60;99.90
22112;DHT22;11222;50.872;4.312;2023-11-21T11:39:32;12.50;99.90
22112;DHT22;11222;50.872;4.312;2023-11-21T11:42:06;12.60;99.90
22112;DHT22;11222;50.872;4.312;2023-11-21T11:47:20;12.50;99.90
22112;DHT22;11222;50.872;4.312;2023-11-21T11:50:28;12.30;99.90
22112;DHT22;11222;50.872;4.312;2023-11-21T11:52:46;12.10;99.90
22112;DHT22;11222;50.872;4.312;2023-11-21T11:55:12;12.20;99.90
22112;DHT22;11222;50.872;4.312;2023-11-21T11:57:39;12.10;99.90
22112;DHT22;11222;50.872;4.312;2023-11-21T12:02:37;12.20;99.90
22112;DHT22;11222;50.872;4.312;2023-11-21T12:05:16;12.30;99.90
22112;DHT22;11222;50.872;4.312;2023-11-21T12:10:10;12.20;99.90
22112;DHT22;11222;50.872;4.312;2023-11-21T12:12:37;12.10;99.90
22112;DHT22;11222;50.872;4.312;2023-11-21T12:15:04;12.10;99.90
22112;DHT22;11222;50.872;4.312;2023-11-21T12:17:30;12.00;99.90
22112;DHT22;11222;50.872;4.312;2023-11-21T12:20:04;11.90;99.90
22112;DHT22;11222;50.872;4.312;2023-11-21T12:22:31;11.80;99.90
22112;DHT22;11222;50.872;4.312;2023-11-21T12:24:57;11.70;99.90
22112;DHT22;11222;50.872;4.312;2023-11-21T12:27:22;11.70;99.90
22112;DHT22;11222;50.872;4.312;2023-11-21T12:29:48;11.80;99.90
22112;DHT22;11222;50.872;4.312;2023-11-21T12:32:13;11.90;99.90
22112;DHT22;11222;50.872;4.312;2023-11-21T12:34:40;12.00;99.90
22112;DHT22;11222;50.872;4.312;2023-11-21T12:37:06;12.00;99.90
22112;DHT22;11222;50.872;4.312;2023-11-21T12:39:31;12.10;99.90
22112;DHT22;11222;50.872;4.312;2023-11-21T12:41:57;12.10;99.90
22112;DHT22;11222;50.872;4.312;2023-11-21T12:44:23;12.00;99.90
22112;DHT22;11222;50.872;4.312;2023-11-21T12:46:49;12.10;99.90
22112;DHT22;11222;50.872;4.312;2023-11-21T12:49:15;12.10;99.90
22112;DHT22;11222;50.872;4.312;2023-11-21T12:51:45;12.10;99.90
22112;DHT22;11222;50.872;4.312;2023-11-21T12:54:11;12.00;99.90
22112;DHT22;11222;50.872;4.312;2023-11-21T12:56:41;12.10;99.90
22112;DHT22;11222;50.872;4.312;2023-11-21T12:59:06;12.20;99.90
22112;DHT22;11222;50.872;4.312;2023-11-21T13:01:32;12.10;99.90
22112;DHT22;11222;50.872;4.312;2023-11-21T13:03:59;12.10;99.90
22112;DHT22;11222;50.872;4.312;2023-11-21T13:06:27;12.30;99.90
22112;DHT22;11222;50.872;4.312;2023-11-21T13:08:54;12.30;99.90
22112;DHT22;11222;50.872;4.312;2023-11-21T13:11:20;12.40;99.90
22112;DHT22;11222;50.872;4.312;2023-11-21T13:13:45;12.50;99.90
22112;DHT22;11222;50.872;4.312;2023-11-21T13:16:11;12.50;99.90
22112;DHT22;11222;50.872;4.312;2023-11-21T13:18:37;12.50;99.90
22112;DHT22;11222;50.872;4.312;2023-11-21T13:21:08;12.40;99.90
22112;DHT22;11222;50.872;4.312;2023-11-21T13:23:40;12.20;99.90
22112;DHT22;11222;50.872;4.312;2023-11-21T13:26:06;12.20;99.90
22112;DHT22;11222;50.872;4.312;2023-11-21T13:28:34;12.10;99.90
22112;DHT22;11222;50.872;4.312;2023-11-21T13:31:00;12.10;99.90
22112;DHT22;11222;50.872;4.312;2023-11-21T13:33:29;12.20;99.90
22112;DHT22;11222;50.872;4.312;2023-11-21T13:35:55;12.20;99.90
22112;DHT22;11222;50.872;4.312;2023-11-21T13:38:22;12.10;99.90
22112;DHT22;11222;50.872;4.312;2023-11-21T13:40:49;12.10;99.90
22112;DHT22;11222;50.872;4.312;2023-11-21T13:43:18;12.20;99.90
22112;DHT22;11222;50.872;4.312;2023-11-21T13:45:44;12.20;99.90
22112;DHT22;11222;50.872;4.312;2023-11-21T13:48:10;12.30;99.90
22112;DHT22;11222;50.872;4.312;2023-11-21T13:50:36;12.20;99.90
22112;DHT22;11222;50.872;4.312;2023-11-21T13:53:02;12.20;99.90
22112;DHT22;11222;50.872;4.312;2023-11-21T13:55:48;12.00;99.90
22112;DHT22;11222;50.872;4.312;2023-11-21T13:58:14;11.80;99.90
22112;DHT22;11222;50.872;4.312;2023-11-21T14:00:48;11.80;99.90
22112;DHT22;11222;50.872;4.312;2023-11-21T14:03:21;11.70;99.90
22112;DHT22;11222;50.872;4.312;2023-11-21T14:05:47;11.80;99.90
22112;DHT22;11222;50.872;4.312;2023-11-21T14:08:19;11.70;99.90
22112;DHT22;11222;50.872;4.312;2023-11-21T14:10:45;11.60;99.90
22112;DHT22;11222;50.872;4.312;2023-11-21T14:13:19;11.60;99.90
22112;DHT22;11222;50.872;4.312;2023-11-21T14:15:48;11.60;99.90
22112;DHT22;11222;50.872;4.312;2023-11-21T14:18:16;11.70;99.90
22112;DHT22;11222;50.872;4.312;2023-11-21T14:20:43;11.80;99.90
22112;DHT22;11222;50.872;4.312;2023-11-21T14:23:09;11.90;99.90
22112;DHT22;11222;50.872;4.312;2023-11-21T14:25:35;12.00;99.90
22112;DHT22;11222;50.872;4.312;2023-11-21T14:28:05;12.10;99.90
22112;DHT22;11222;50.872;4.312;2023-11-21T14:30:32;12.10;99.90
22112;DHT22;11222;50.872;4.312;2023-11-21T14:33:00;12.10;99.90
22112;DHT22;11222;50.872;4.312;2023-11-21T14:35:26;12.20;99.90
22112;DHT22;11222;50.872;4.312;2023-11-21T14:37:52;12.20;99.90
22112;DHT22;11222;50.872;4.312;2023-11-21T14:40:18;12.10;99.90
22112;DHT22;11222;50.872;4.312;2023-11-21T14:42:47;11.90;99.90
22112;DHT22;11222;50.872;4.312;2023-11-21T14:45:13;11.90;99.90
22112;DHT22;11222;50.872;4.312;2023-11-21T14:47:42;11.90;99.90
22112;DHT22;11222;50.872;4.312;2023-11-21T14:50:13;11.80;99.90
22112;DHT22;11222;50.872;4.312;2023-11-21T14:52:57;11.90;99.90
22112;DHT22;11222;50.872;4.312;2023-11-21T14:55:24;12.00;99.90
22112;DHT22;11222;50.872;4.312;2023-11-21T14:58:19;12.10;99.90
22112;DHT22;11222;50.872;4.312;2023-11-21T15:00:55;12.10;99.90
22112;DHT22;11222;50.872;4.312;2023-11-21T15:03:24;12.10;99.90
22112;DHT22;11222;50.872;4.312;2023-11-21T15:05:56;12.10;99.90
22112;DHT22;11222;50.872;4.312;2023-11-21T15:08:22;12.20;99.90
22112;DHT22;11222;50.872;4.312;2023-11-21T15:10:55;12.20;99.90
22112;DHT22;11222;50.872;4.312;2023-11-21T15:13:21;12.20;99.90
22112;DHT22;11222;50.872;4.312;2023-11-21T15:15:51;12.30;99.90
22112;DHT22;11222;50.872;4.312;2023-11-21T15:18:19;12.40;99.90
22112;DHT22;11222;50.872;4.312;2023-11-21T15:20:45;12.40;99.90
22112;DHT22;11222;50.872;4.312;2023-11-21T15:23:11;12.30;99.90
22112;DHT22;11222;50.872;4.312;2023-11-21T15:25:38;12.20;99.90
22112;DHT22;11222;50.872;4.312;2023-11-21T15:28:04;12.20;99.90
22112;DHT22;11222;50.872;4.312;2023-11-21T15:30:30;12.10;99.90
22112;DHT22;11222;50.872;4.312;2023-11-21T15:33:00;11.90;99.90
22112;DHT22;11222;50.872;4.312;2023-11-21T15:35:26;11.90;99.90
22112;DHT22;11222;50.872;4.312;2023-11-21T15:37:53;11.70;99.90
22112;DHT22;11222;50.872;4.312;2023-11-21T15:40:21;11.60;99.90